sensor_id;sensor_type;location;lat;lon;timestamp;pressure;altitude;pressure_sealevel;temperature;humidity
57234;BME280;43090;52.604;13.318;2023-12-22T00:00:06;97894.28;;;4.07;88.33
57234;BME280;43090;52.604;13.318;2023-12-22T00:02:34;97910.31;;;4.05;90.15
57234;BME280;43090;52.604;13.318;2023-12-22T00:05:01;97900.41;;;3.97;88.39
57234;BME280;43090;52.604;13.318;2023-12-22T00:07:35;97905.03;;;4.15;90.90
57234;BME280;43090;52.604;13.318;2023-12-22T00:10:05;97878.22;;;3.79;86.64
57234;BME280;43090;52.604;13.318;2023-12-22T00:12:35;97904.59;;;4.00;88.24
57234;BME280;43090;52.604;13.318;2023-12-22T00:15:01;97926.59;;;4.00;87.09
57234;BME280;43090;52.604;13.318;2023-12-22T00:17:28;97890.88;;;3.65;85.57
57234;BME280;43090;52.604;13.318;2023-12-22T00:19:55;97920.13;;;3.74;86.31
57234;BME280;43090;52.604;13.318;2023-12-22T00:22:29;97932.75;;;4.01;86.07
57234;BME280;43090;52.604;13.318;2023-12-22T00:24:56;97895.34;;;3.75;84.55
57234;BME280;43090;52.604;13.318;2023-12-22T00:27:25;97895.69;;;4.01;87.08
57234;BME280;43090;52.604;13.318;2023-12-22T00:29:52;97926.59;;;4.00;84.43
57234;BME280;43090;52.604;13.318;2023-12-22T00:32:22;97934.09;;;3.95;82.49
57234;BME280;43090;52.604;13.318;2023-12-22T00:34:48;97959.75;;;4.05;81.90
57234;BME280;43090;52.604;13.318;2023-12-22T00:37:15;97925.59;;;3.82;83.20
57234;BME280;43090;52.604;13.318;2023-12-22T00:39:42;97965.69;;;4.28;83.73
57234;BME280;43090;52.604;13.318;2023-12-22T00:42:09;97966.75;;;4.06;81.76
57234;BME280;43090;52.604;13.318;2023-12-22T00:44:43;97975.53;;;4.06;82.98
57234;BME280;43090;52.604;13.318;2023-12-22T00:47:10;97952.81;;;4.13;83.34
57234;BME280;43090;52.604;13.318;2023-12-22T00:49:37;97967.28;;;3.99;81.55
57234;BME280;43090;52.604;13.318;2023-12-22T00:52:06;97985.84;;;4.09;81.00
57234;BME280;43090;52.604;13.318;2023-12-22T00:54:33;97964.25;;;4.04;83.83
57234;BME280;43090;52.604;13.318;2023-12-22T00:57:02;98003.41;;;4.10;83.34
57234;BME280;43090;52.604;13.318;2023-12-22T00:59:31;97984.69;;;4.02;81.88
57234;BME280;43090;52.604;13.318;2023-12-22T01:02:01;97999.91;;;4.10;85.56
57234;BME280;43090;52.604;13.318;2023-12-22T01:04:30;98009.09;;;4.06;84.73
57234;BME280;43090;52.604;13.318;2023-12-22T01:07:00;97990.13;;;4.00;85.74
57234;BME280;43090;52.604;13.318;2023-12-22T01:09:29;98018.16;;;4.03;87.39
57234;BME280;43090;52.604;13.318;2023-12-22T01:11:56;98019.75;;;4.25;88.20
57234;BME280;43090;52.604;13.318;2023-12-22T01:14:25;98014.00;;;4.10;90.28
57234;BME280;43090;52.604;13.318;2023-12-22T01:16:54;98023.88;;;3.98;88.63
57234;BME280;43090;52.604;13.318;2023-12-22T01:19:26;98000.41;;;3.84;88.85
57234;BME280;43090;52.604;13.318;2023-12-22T01:21:52;98067.97;;;4.19;90.76
57234;BME280;43090;52.604;13.318;2023-12-22T01:24:19;98059.47;;;4.15;89.99
57234;BME280;43090;52.604;13.318;2023-12-22T01:26:51;98044.47;;;3.95;90.74
57234;BME280;43090;52.604;13.318;2023-12-22T01:29:20;98048.66;;;3.97;91.09
57234;BME280;43090;52.604;13.318;2023-12-22T01:31:46;98041.41;;;3.99;89.43
57234;BME280;43090;52.604;13.318;2023-12-22T01:34:13;98042.53;;;3.97;88.56
57234;BME280;43090;52.604;13.318;2023-12-22T01:36:40;98067.28;;;4.27;90.70
57234;BME280;43090;52.604;13.318;2023-12-22T01:39:06;98051.53;;;4.15;91.35
57234;BME280;43090;52.604;13.318;2023-12-22T01:41:35;98077.88;;;4.17;89.09
57234;BME280;43090;52.604;13.318;2023-12-22T01:44:02;98068.28;;;3.95;89.86
57234;BME280;43090;52.604;13.318;2023-12-22T01:46:28;98075.47;;;4.14;91.94
57234;BME280;43090;52.604;13.318;2023-12-22T01:48:55;98065.34;;;3.88;91.81
57234;BME280;43090;52.604;13.318;2023-12-22T01:51:22;98055.28;;;3.82;92.24
57234;BME280;43090;52.604;13.318;2023-12-22T01:53:49;98054.38;;;3.72;92.74
57234;BME280;43090;52.604;13.318;2023-12-22T01:56:15;98097.72;;;4.02;92.52
57234;BME280;43090;52.604;13.318;2023-12-22T01:58:47;98061.16;;;3.55;92.21
57234;BME280;43090;52.604;13.318;2023-12-22T02:01:20;98070.38;;;3.91;94.59
57234;BME280;43090;52.604;13.318;2023-12-22T02:03:50;98052.34;;;3.54;93.37
57234;BME280;43090;52.604;13.318;2023-12-22T02:06:21;98075.63;;;3.81;96.26
57234;BME280;43090;52.604;13.318;2023-12-22T02:08:51;98038.75;;;3.59;92.97
57234;BME280;43090;52.604;13.318;2023-12-22T02:11:18;98055.13;;;3.53;92.11
57234;BME280;43090;52.604;13.318;2023-12-22T02:13:46;98056.84;;;3.63;93.79
57234;BME280;43090;52.604;13.318;2023-12-22T02:16:20;98044.19;;;3.36;92.72
57234;BME280;43090;52.604;13.318;2023-12-22T02:18:55;98072.09;;;3.50;93.49
57234;BME280;43090;52.604;13.318;2023-12-22T02:21:22;98069.06;;;3.76;95.36
57234;BME280;43090;52.604;13.318;2023-12-22T02:23:48;98090.41;;;3.84;92.27
57234;BME280;43090;52.604;13.318;2023-12-22T02:26:28;98055.91;;;3.64;96.97
57234;BME280;43090;52.604;13.318;2023-12-22T02:29:00;98074.72;;;3.71;93.89
57234;BME280;43090;52.604;13.318;2023-12-22T02:46:16;98082.09;;;3.25;100.00
57234;BME280;43090;52.604;13.318;2023-12-22T02:48:43;98102.69;;;3.43;99.48
57234;BME280;43090;52.604;13.318;2023-12-22T02:51:09;98085.59;;;3.68;95.79
57234;BME280;43090;52.604;13.318;2023-12-22T02:53:36;98084.03;;;3.44;95.68
57234;BME280;43090;52.604;13.318;2023-12-22T02:56:02;98076.47;;;3.61;95.58
57234;BME280;43090;52.604;13.318;2023-12-22T02:58:29;98093.66;;;3.66;94.71
57234;BME280;43090;52.604;13.318;2023-12-22T03:00:56;98083.94;;;3.77;95.77
57234;BME280;43090;52.604;13.318;2023-12-22T03:03:22;98080.75;;;3.52;96.45
57234;BME280;43090;52.604;13.318;2023-12-22T03:05:49;98088.47;;;3.65;93.12
57234;BME280;43090;52.604;13.318;2023-12-22T03:08:15;98068.53;;;3.61;95.85
57234;BME280;43090;52.604;13.318;2023-12-22T03:10:42;98075.78;;;3.59;95.99
57234;BME280;43090;52.604;13.318;2023-12-22T03:13:08;98088.25;;;3.47;94.04
57234;BME280;43090;52.604;13.318;2023-12-22T03:15:35;98071.47;;;3.37;93.78
57234;BME280;43090;52.604;13.318;2023-12-22T03:18:01;98067.53;;;3.31;94.73
57234;BME280;43090;52.604;13.318;2023-12-22T03:20:28;98091.34;;;3.52;94.47
57234;BME280;43090;52.604;13.318;2023-12-22T03:22:55;98077.19;;;3.63;94.92
57234;BME280;43090;52.604;13.318;2023-12-22T03:25:21;98055.72;;;3.35;96.75
57234;BME280;43090;52.604;13.318;2023-12-22T03:27:48;98068.94;;;3.35;95.21
57234;BME280;43090;52.604;13.318;2023-12-22T03:30:15;98098.22;;;3.43;95.88
57234;BME280;43090;52.604;13.318;2023-12-22T03:32:42;98078.16;;;3.41;95.18
57234;BME280;43090;52.604;13.318;2023-12-22T03:35:08;98063.84;;;3.22;96.42
57234;BME280;43090;52.604;13.318;2023-12-22T03:37:35;98054.41;;;3.29;95.92
57234;BME280;43090;52.604;13.318;2023-12-22T03:40:01;98079.44;;;3.46;97.47
57234;BME280;43090;52.604;13.318;2023-12-22T03:42:28;98055.59;;;3.15;96.90
57234;BME280;43090;52.604;13.318;2023-12-22T03:44:55;98058.28;;;3.25;98.80
57234;BME280;43090;52.604;13.318;2023-12-22T03:47:21;98056.56;;;3.36;99.28
57234;BME280;43090;52.604;13.318;2023-12-22T03:49:48;98073.50;;;3.54;98.62
57234;BME280;43090;52.604;13.318;2023-12-22T03:52:15;98075.25;;;3.44;98.54
57234;BME280;43090;52.604;13.318;2023-12-22T03:54:41;98091.06;;;3.55;97.89
57234;BME280;43090;52.604;13.318;2023-12-22T03:57:08;98073.34;;;3.46;98.56
57234;BME280;43090;52.604;13.318;2023-12-22T03:59:35;98081.72;;;3.51;97.18
57234;BME280;43090;52.604;13.318;2023-12-22T04:02:01;98079.13;;;3.40;99.46
57234;BME280;43090;52.604;13.318;2023-12-22T04:04:28;98084.28;;;3.62;100.00
57234;BME280;43090;52.604;13.318;2023-12-22T04:06:55;98109.78;;;3.63;96.14
57234;BME280;43090;52.604;13.318;2023-12-22T04:09:21;98074.09;;;3.37;97.36
57234;BME280;43090;52.604;13.318;2023-12-22T04:11:48;98089.06;;;3.47;96.82
57234;BME280;43090;52.604;13.318;2023-12-22T04:14:14;98096.31;;;3.66;97.99
57234;BME280;43090;52.604;13.318;2023-12-22T04:16:42;98096.78;;;3.81;96.61
57234;BME280;43090;52.604;13.318;2023-12-22T04:19:09;98107.31;;;3.72;95.90
57234;BME280;43090;52.604;13.318;2023-12-22T04:21:38;98075.97;;;3.46;98.33
57234;BME280;43090;52.604;13.318;2023-12-22T04:24:05;98090.63;;;3.29;98.77
57234;BME280;43090;52.604;13.318;2023-12-22T04:26:31;98099.38;;;3.29;99.79
57234;BME280;43090;52.604;13.318;2023-12-22T04:28:58;98098.09;;;3.24;99.96
57234;BME280;43090;52.604;13.318;2023-12-22T04:31:25;98076.09;;;3.23;99.76
57234;BME280;43090;52.604;13.318;2023-12-22T04:33:51;98068.31;;;3.22;99.32
57234;BME280;43090;52.604;13.318;2023-12-22T04:36:18;98072.19;;;3.17;99.63
57234;BME280;43090;52.604;13.318;2023-12-22T04:38:44;98103.19;;;3.37;100.00
57234;BME280;43090;52.604;13.318;2023-12-22T04:41:11;98066.88;;;3.17;100.00
57234;BME280;43090;52.604;13.318;2023-12-22T04:43:37;98082.63;;;3.61;100.00
57234;BME280;43090;52.604;13.318;2023-12-22T04:46:04;98101.84;;;3.42;100.00
57234;BME280;43090;52.604;13.318;2023-12-22T04:48:30;98115.78;;;3.44;100.00
57234;BME280;43090;52.604;13.318;2023-12-22T04:50:59;98091.78;;;3.15;100.00
57234;BME280;43090;52.604;13.318;2023-12-22T04:53:26;98052.34;;;3.12;100.00
57234;BME280;43090;52.604;13.318;2023-12-22T04:55:53;98077.69;;;3.14;100.00
57234;BME280;43090;52.604;13.318;2023-12-22T04:58:19;98107.06;;;3.32;100.00
57234;BME280;43090;52.604;13.318;2023-12-22T05:00:46;98069.50;;;2.96;100.00
57234;BME280;43090;52.604;13.318;2023-12-22T05:03:12;98092.19;;;2.99;100.00
57234;BME280;43090;52.604;13.318;2023-12-22T05:05:39;98086.56;;;2.92;100.00
57234;BME280;43090;52.604;13.318;2023-12-22T05:08:06;98101.47;;;3.26;100.00
57234;BME280;43090;52.604;13.318;2023-12-22T05:11:01;98101.22;;;2.96;100.00
57234;BME280;43090;52.604;13.318;2023-12-22T05:13:57;98059.03;;;2.95;100.00
57234;BME280;43090;52.604;13.318;2023-12-22T05:16:27;98082.72;;;2.96;100.00
57234;BME280;43090;52.604;13.318;2023-12-22T05:18:54;98089.00;;;2.84;100.00
57234;BME280;43090;52.604;13.318;2023-12-22T05:21:21;98060.31;;;2.79;100.00
57234;BME280;43090;52.604;13.318;2023-12-22T05:23:47;98071.16;;;2.97;100.00
57234;BME280;43090;52.604;13.318;2023-12-22T05:26:18;98067.53;;;2.77;100.00
57234;BME280;43090;52.604;13.318;2023-12-22T05:28:45;98049.44;;;2.61;100.00
57234;BME280;43090;52.604;13.318;2023-12-22T05:31:12;98061.75;;;2.83;100.00
57234;BME280;43090;52.604;13.318;2023-12-22T05:34:20;98050.88;;;2.65;100.00
57234;BME280;43090;52.604;13.318;2023-12-22T05:37:01;98086.63;;;2.81;100.00
57234;BME280;43090;52.604;13.318;2023-12-22T05:39:27;98088.75;;;2.87;100.00
57234;BME280;43090;52.604;13.318;2023-12-22T05:41:54;98085.88;;;2.90;100.00
57234;BME280;43090;52.604;13.318;2023-12-22T05:44:21;98049.03;;;2.45;100.00
57234;BME280;43090;52.604;13.318;2023-12-22T05:46:48;98062.97;;;2.79;100.00
57234;BME280;43090;52.604;13.318;2023-12-22T05:49:15;98100.38;;;2.96;100.00
57234;BME280;43090;52.604;13.318;2023-12-22T05:51:42;98086.28;;;2.74;100.00
57234;BME280;43090;52.604;13.318;2023-12-22T05:54:08;98089.72;;;2.86;100.00
57234;BME280;43090;52.604;13.318;2023-12-22T05:56:36;98077.50;;;2.74;100.00
57234;BME280;43090;52.604;13.318;2023-12-22T05:59:03;98082.06;;;3.04;100.00
57234;BME280;43090;52.604;13.318;2023-12-22T06:01:30;98080.09;;;2.85;100.00
57234;BME280;43090;52.604;13.318;2023-12-22T06:03:56;98094.25;;;2.95;100.00
57234;BME280;43090;52.604;13.318;2023-12-22T06:06:25;98074.16;;;2.72;100.00
57234;BME280;43090;52.604;13.318;2023-12-22T06:08:57;98066.84;;;2.64;100.00
57234;BME280;43090;52.604;13.318;2023-12-22T06:11:25;98089.97;;;2.83;100.00
57234;BME280;43090;52.604;13.318;2023-12-22T06:13:51;98107.50;;;3.16;100.00
57234;BME280;43090;52.604;13.318;2023-12-22T06:16:20;98073.59;;;2.89;100.00
57234;BME280;43090;52.604;13.318;2023-12-22T06:18:49;98086.69;;;2.91;99.96
57234;BME280;43090;52.604;13.318;2023-12-22T06:21:16;98109.53;;;2.92;99.75
57234;BME280;43090;52.604;13.318;2023-12-22T06:23:42;98073.53;;;2.79;100.00
57234;BME280;43090;52.604;13.318;2023-12-22T06:26:14;98068.13;;;2.81;100.00
57234;BME280;43090;52.604;13.318;2023-12-22T06:28:41;98088.63;;;2.89;99.89
57234;BME280;43090;52.604;13.318;2023-12-22T07:06:12;98159.66;;;2.71;100.00
57234;BME280;43090;52.604;13.318;2023-12-22T07:08:39;98136.13;;;2.56;100.00
57234;BME280;43090;52.604;13.318;2023-12-22T07:11:05;98131.84;;;2.32;100.00
57234;BME280;43090;52.604;13.318;2023-12-22T07:13:33;98143.53;;;2.85;100.00
57234;BME280;43090;52.604;13.318;2023-12-22T08:10:02;98159.78;;;2.69;100.00
57234;BME280;43090;52.604;13.318;2023-12-22T08:12:29;98143.00;;;2.47;100.00
57234;BME280;43090;52.604;13.318;2023-12-22T08:15:21;98205.28;;;2.84;100.00
57234;BME280;43090;52.604;13.318;2023-12-22T08:58:32;98266.91;;;2.73;100.00
57234;BME280;43090;52.604;13.318;2023-12-22T09:00:59;98256.47;;;2.72;97.31
57234;BME280;43090;52.604;13.318;2023-12-22T09:03:26;98240.75;;;2.47;96.82
57234;BME280;43090;52.604;13.318;2023-12-22T09:05:54;98265.22;;;2.72;97.22
57234;BME280;43090;52.604;13.318;2023-12-22T09:08:22;98249.97;;;2.53;96.14
57234;BME280;43090;52.604;13.318;2023-12-22T09:10:52;98244.44;;;2.56;96.53
57234;BME280;43090;52.604;13.318;2023-12-22T09:17:14;98275.44;;;2.77;94.61
57234;BME280;43090;52.604;13.318;2023-12-22T09:19:43;98290.34;;;2.78;95.89
57234;BME280;43090;52.604;13.318;2023-12-22T09:22:09;98282.16;;;2.81;93.87
57234;BME280;43090;52.604;13.318;2023-12-22T09:24:36;98266.06;;;2.84;94.71
57234;BME280;43090;52.604;13.318;2023-12-22T09:27:03;98269.06;;;2.91;91.97
57234;BME280;43090;52.604;13.318;2023-12-22T09:29:51;98265.59;;;2.90;91.45
57234;BME280;43090;52.604;13.318;2023-12-22T09:32:18;98325.03;;;2.96;91.49
57234;BME280;43090;52.604;13.318;2023-12-22T09:34:49;98313.53;;;2.97;91.49
57234;BME280;43090;52.604;13.318;2023-12-22T09:37:19;98296.44;;;2.90;90.78
57234;BME280;43090;52.604;13.318;2023-12-22T09:39:45;98308.81;;;3.12;89.57
57234;BME280;43090;52.604;13.318;2023-12-22T09:42:16;98290.69;;;3.07;90.47
57234;BME280;43090;52.604;13.318;2023-12-22T09:59:51;98341.03;;;3.17;88.96
57234;BME280;43090;52.604;13.318;2023-12-22T10:02:25;98326.63;;;3.10;86.63
57234;BME280;43090;52.604;13.318;2023-12-22T10:04:52;98316.38;;;3.05;86.92
57234;BME280;43090;52.604;13.318;2023-12-22T10:07:22;98334.28;;;3.47;86.87
57234;BME280;43090;52.604;13.318;2023-12-22T10:09:50;98329.94;;;3.34;87.02
57234;BME280;43090;52.604;13.318;2023-12-22T10:12:19;98329.81;;;3.47;85.41
57234;BME280;43090;52.604;13.318;2023-12-22T10:14:49;98359.47;;;3.62;86.46
57234;BME280;43090;52.604;13.318;2023-12-22T10:17:28;98355.16;;;3.61;87.48
57234;BME280;43090;52.604;13.318;2023-12-22T10:19:55;98353.50;;;3.49;86.22
57234;BME280;43090;52.604;13.318;2023-12-22T10:22:22;98369.31;;;3.72;85.73
57234;BME280;43090;52.604;13.318;2023-12-22T10:25:29;98366.59;;;3.50;84.27
57234;BME280;43090;52.604;13.318;2023-12-22T10:27:56;98360.00;;;3.45;87.41
57234;BME280;43090;52.604;13.318;2023-12-22T10:30:23;98367.69;;;3.37;85.77
57234;BME280;43090;52.604;13.318;2023-12-22T10:32:53;98341.13;;;3.49;84.24
57234;BME280;43090;52.604;13.318;2023-12-22T10:35:20;98355.25;;;3.71;84.34
57234;BME280;43090;52.604;13.318;2023-12-22T10:37:47;98350.72;;;3.50;81.58
57234;BME280;43090;52.604;13.318;2023-12-22T10:40:15;98343.63;;;3.51;81.79
57234;BME280;43090;52.604;13.318;2023-12-22T10:42:41;98318.13;;;3.50;80.32
57234;BME280;43090;52.604;13.318;2023-12-22T10:45:08;98338.59;;;3.48;83.44
57234;BME280;43090;52.604;13.318;2023-12-22T10:47:35;98361.34;;;3.83;81.72
57234;BME280;43090;52.604;13.318;2023-12-22T10:50:04;98355.41;;;3.58;80.71
57234;BME280;43090;52.604;13.318;2023-12-22T10:52:31;98332.72;;;3.44;82.02
57234;BME280;43090;52.604;13.318;2023-12-22T10:55:05;98366.78;;;3.81;81.32
57234;BME280;43090;52.604;13.318;2023-12-22T10:57:32;98314.25;;;3.65;83.35
57234;BME280;43090;52.604;13.318;2023-12-22T11:00:14;98340.84;;;3.53;81.59
57234;BME280;43090;52.604;13.318;2023-12-22T11:03:13;98339.91;;;3.54;85.53
57234;BME280;43090;52.604;13.318;2023-12-22T11:06:49;98329.88;;;3.69;82.19
57234;BME280;43090;52.604;13.318;2023-12-22T11:13:36;98347.84;;;3.54;79.92
57234;BME280;43090;52.604;13.318;2023-12-22T11:16:18;98364.19;;;3.59;80.43
57234;BME280;43090;52.604;13.318;2023-12-22T11:19:19;98331.38;;;3.39;80.72
57234;BME280;43090;52.604;13.318;2023-12-22T11:22:17;98366.19;;;3.78;79.15
57234;BME280;43090;52.604;13.318;2023-12-22T11:29:14;98340.72;;;3.65;79.14
57234;BME280;43090;52.604;13.318;2023-12-22T11:31:45;98325.06;;;3.62;81.52
57234;BME280;43090;52.604;13.318;2023-12-22T11:38:23;98332.63;;;3.78;79.71
57234;BME280;43090;52.604;13.318;2023-12-22T11:41:13;98334.41;;;3.78;77.52
57234;BME280;43090;52.604;13.318;2023-12-22T11:43:45;98369.63;;;4.01;79.00
57234;BME280;43090;52.604;13.318;2023-12-22T11:46:18;98352.81;;;3.79;76.74
57234;BME280;43090;52.604;13.318;2023-12-22T11:56:41;98346.63;;;3.90;76.42
57234;BME280;43090;52.604;13.318;2023-12-22T12:02:56;98361.06;;;3.97;78.26
57234;BME280;43090;52.604;13.318;2023-12-22T12:05:24;98354.09;;;3.96;78.09
57234;BME280;43090;52.604;13.318;2023-12-22T12:08:08;98351.53;;;4.06;80.71
57234;BME280;43090;52.604;13.318;2023-12-22T12:11:05;98372.59;;;4.08;76.85
57234;BME280;43090;52.604;13.318;2023-12-22T12:13:49;98357.28;;;3.79;76.65
57234;BME280;43090;52.604;13.318;2023-12-22T12:16:21;98352.69;;;3.81;79.42
57234;BME280;43090;52.604;13.318;2023-12-22T12:18:58;98366.66;;;3.72;77.49
57234;BME280;43090;52.604;13.318;2023-12-22T12:25:16;98366.53;;;3.84;79.54
57234;BME280;43090;52.604;13.318;2023-12-22T12:28:05;98386.00;;;3.95;77.54
57234;BME280;43090;52.604;13.318;2023-12-22T12:30:33;98387.81;;;3.94;78.35
57234;BME280;43090;52.604;13.318;2023-12-22T12:33:14;98358.72;;;3.83;78.08
57234;BME280;43090;52.604;13.318;2023-12-22T12:35:46;98384.44;;;3.92;78.82
57234;BME280;43090;52.604;13.318;2023-12-22T12:38:23;98381.81;;;3.81;78.59
57234;BME280;43090;52.604;13.318;2023-12-22T12:40:56;98376.56;;;4.02;78.76
57234;BME280;43090;52.604;13.318;2023-12-22T12:43:30;98396.72;;;3.93;80.43
57234;BME280;43090;52.604;13.318;2023-12-22T12:46:05;98384.91;;;3.97;77.14
57234;BME280;43090;52.604;13.318;2023-12-22T12:48:35;98364.59;;;4.19;78.47
57234;BME280;43090;52.604;13.318;2023-12-22T12:51:07;98390.16;;;4.09;79.18
57234;BME280;43090;52.604;13.318;2023-12-22T12:53:48;98378.78;;;3.97;78.59
57234;BME280;43090;52.604;13.318;2023-12-22T12:56:34;98371.28;;;4.02;77.03
57234;BME280;43090;52.604;13.318;2023-12-22T12:59:15;98382.06;;;3.78;80.09
57234;BME280;43090;52.604;13.318;2023-12-22T13:01:50;98382.88;;;3.90;79.61
57234;BME280;43090;52.604;13.318;2023-12-22T13:11:24;98410.00;;;4.14;80.94
57234;BME280;43090;52.604;13.318;2023-12-22T13:14:07;98379.53;;;3.76;80.04
57234;BME280;43090;52.604;13.318;2023-12-22T13:16:34;98377.28;;;3.60;81.60
57234;BME280;43090;52.604;13.318;2023-12-22T13:19:05;98393.47;;;3.90;80.82
57234;BME280;43090;52.604;13.318;2023-12-22T13:21:32;98391.22;;;3.85;81.08
57234;BME280;43090;52.604;13.318;2023-12-22T13:24:13;98380.56;;;3.96;81.31
57234;BME280;43090;52.604;13.318;2023-12-22T13:26:43;98370.88;;;3.74;80.59
57234;BME280;43090;52.604;13.318;2023-12-22T13:29:13;98369.56;;;3.80;80.39
57234;BME280;43090;52.604;13.318;2023-12-22T13:31:41;98384.44;;;3.81;80.23
57234;BME280;43090;52.604;13.318;2023-12-22T13:34:13;98412.44;;;4.06;80.93
57234;BME280;43090;52.604;13.318;2023-12-22T13:40:09;98403.34;;;3.88;78.95
57234;BME280;43090;52.604;13.318;2023-12-22T13:42:36;98414.50;;;4.03;76.67
57234;BME280;43090;52.604;13.318;2023-12-22T13:45:10;98432.28;;;4.12;78.39
57234;BME280;43090;52.604;13.318;2023-12-22T13:50:55;98411.84;;;4.03;78.96
57234;BME280;43090;52.604;13.318;2023-12-22T13:53:22;98387.75;;;3.73;76.83
57234;BME280;43090;52.604;13.318;2023-12-22T13:55:59;98414.56;;;4.12;79.74
57234;BME280;43090;52.604;13.318;2023-12-22T13:58:26;98419.25;;;4.20;80.53
57234;BME280;43090;52.604;13.318;2023-12-22T14:00:54;98434.47;;;4.07;80.84
57234;BME280;43090;52.604;13.318;2023-12-22T14:03:21;98436.03;;;3.98;80.07
57234;BME280;43090;52.604;13.318;2023-12-22T14:05:48;98445.13;;;4.16;80.72
57234;BME280;43090;52.604;13.318;2023-12-22T14:08:15;98424.69;;;4.07;81.69
57234;BME280;43090;52.604;13.318;2023-12-22T14:10:49;98466.94;;;4.09;80.56
57234;BME280;43090;52.604;13.318;2023-12-22T14:13:16;98448.91;;;4.03;80.64
57234;BME280;43090;52.604;13.318;2023-12-22T14:15:44;98421.97;;;3.86;80.74
57234;BME280;43090;52.604;13.318;2023-12-22T14:18:11;98450.22;;;4.08;80.35
57234;BME280;43090;52.604;13.318;2023-12-22T14:20:38;98447.97;;;4.04;80.02
57234;BME280;43090;52.604;13.318;2023-12-22T14:23:04;98470.72;;;3.95;81.75
57234;BME280;43090;52.604;13.318;2023-12-22T14:25:32;98447.66;;;3.63;84.76
57234;BME280;43090;52.604;13.318;2023-12-22T14:28:02;98472.91;;;3.78;85.46
57234;BME280;43090;52.604;13.318;2023-12-22T14:30:38;98455.47;;;3.64;87.10
57234;BME280;43090;52.604;13.318;2023-12-22T14:33:04;98444.88;;;3.53;87.68
57234;BME280;43090;52.604;13.318;2023-12-22T14:35:31;98483.47;;;3.56;88.53
57234;BME280;43090;52.604;13.318;2023-12-22T14:37:57;98469.19;;;3.47;89.76
57234;BME280;43090;52.604;13.318;2023-12-22T14:40:30;98465.69;;;3.46;89.30
57234;BME280;43090;52.604;13.318;2023-12-22T14:42:57;98460.66;;;3.55;88.58
57234;BME280;43090;52.604;13.318;2023-12-22T14:45:25;98445.25;;;3.48;90.72
57234;BME280;43090;52.604;13.318;2023-12-22T14:47:52;98464.59;;;3.26;90.24
57234;BME280;43090;52.604;13.318;2023-12-22T14:50:20;98480.81;;;3.33;89.34
57234;BME280;43090;52.604;13.318;2023-12-22T14:52:47;98459.53;;;3.34;88.74
57234;BME280;43090;52.604;13.318;2023-12-22T14:55:14;98487.94;;;3.32;87.70
57234;BME280;43090;52.604;13.318;2023-12-22T14:57:40;98489.13;;;3.40;89.47
57234;BME280;43090;52.604;13.318;2023-12-22T15:00:07;98497.66;;;3.32;88.45
57234;BME280;43090;52.604;13.318;2023-12-22T15:02:36;98479.63;;;3.26;89.91
57234;BME280;43090;52.604;13.318;2023-12-22T15:05:02;98460.75;;;3.19;87.16
57234;BME280;43090;52.604;13.318;2023-12-22T15:07:30;98463.19;;;3.33;86.74
57234;BME280;43090;52.604;13.318;2023-12-22T15:09:57;98481.41;;;3.25;88.32
57234;BME280;43090;52.604;13.318;2023-12-22T15:12:25;98475.63;;;3.09;88.24
57234;BME280;43090;52.604;13.318;2023-12-22T15:14:51;98484.56;;;3.30;86.62
57234;BME280;43090;52.604;13.318;2023-12-22T15:17:18;98444.63;;;2.99;86.93
57234;BME280;43090;52.604;13.318;2023-12-22T15:19:48;98490.47;;;3.45;88.35
57234;BME280;43090;52.604;13.318;2023-12-22T15:22:15;98473.44;;;2.91;88.42
57234;BME280;43090;52.604;13.318;2023-12-22T15:24:42;98493.91;;;3.12;87.84
57234;BME280;43090;52.604;13.318;2023-12-22T15:27:12;98503.81;;;3.44;88.29
57234;BME280;43090;52.604;13.318;2023-12-22T15:29:39;98483.34;;;3.34;87.02
57234;BME280;43090;52.604;13.318;2023-12-22T15:32:05;98494.66;;;3.37;87.19
57234;BME280;43090;52.604;13.318;2023-12-22T15:34:32;98501.16;;;3.32;88.37
57234;BME280;43090;52.604;13.318;2023-12-22T15:36:59;98499.56;;;3.07;88.84
57234;BME280;43090;52.604;13.318;2023-12-22T15:39:32;98506.59;;;2.95;91.33
57234;BME280;43090;52.604;13.318;2023-12-22T15:42:14;98467.22;;;2.68;91.60
57234;BME280;43090;52.604;13.318;2023-12-22T15:44:41;98512.78;;;3.19;92.83
57234;BME280;43090;52.604;13.318;2023-12-22T15:50:19;98484.50;;;2.96;91.44
57234;BME280;43090;52.604;13.318;2023-12-22T15:52:53;98488.22;;;2.94;92.30
57234;BME280;43090;52.604;13.318;2023-12-22T15:55:20;98469.06;;;2.79;93.66
57234;BME280;43090;52.604;13.318;2023-12-22T15:57:47;98473.66;;;2.88;93.95
57234;BME280;43090;52.604;13.318;2023-12-22T16:00:15;98505.84;;;3.29;92.51
57234;BME280;43090;52.604;13.318;2023-12-22T16:02:41;98501.16;;;3.32;90.79
57234;BME280;43090;52.604;13.318;2023-12-22T16:05:08;98505.72;;;3.30;92.06
57234;BME280;43090;52.604;13.318;2023-12-22T16:07:46;98480.88;;;2.86;93.30
57234;BME280;43090;52.604;13.318;2023-12-22T16:10:27;98482.94;;;2.94;93.08
57234;BME280;43090;52.604;13.318;2023-12-22T16:13:11;98497.72;;;2.96;92.35
57234;BME280;43090;52.604;13.318;2023-12-22T16:16:23;98490.94;;;2.81;93.61
57234;BME280;43090;52.604;13.318;2023-12-22T16:18:53;98488.59;;;3.00;93.31
57234;BME280;43090;52.604;13.318;2023-12-22T16:21:49;98480.94;;;3.09;92.36
57234;BME280;43090;52.604;13.318;2023-12-22T16:24:42;98466.91;;;2.84;93.90
57234;BME280;43090;52.604;13.318;2023-12-22T16:27:09;98465.88;;;3.09;92.62
57234;BME280;43090;52.604;13.318;2023-12-22T16:29:40;98501.38;;;3.18;91.61
57234;BME280;43090;52.604;13.318;2023-12-22T16:32:10;98471.13;;;2.87;92.54
57234;BME280;43090;52.604;13.318;2023-12-22T16:35:11;98500.84;;;3.02;92.87
57234;BME280;43090;52.604;13.318;2023-12-22T16:37:38;98499.94;;;2.78;91.84
57234;BME280;43090;52.604;13.318;2023-12-22T16:40:09;98503.22;;;2.93;92.58
57234;BME280;43090;52.604;13.318;2023-12-22T16:42:43;98512.66;;;3.09;92.13